Time;durP1;ratioP1;P1;durP2;ratioP2;P2;SDS_P1;SDS_P2;PMS_P1;PMS_P2;Temp;Humidity;BMP_temperature;BMP_pressure;BME280_temperature;BME280_humidity;BME280_pressure;Samples;Min_cycle;Max_cycle;Signal;HPM_P1;HPM_P2
2019/11/19 00:00:22;;;;;;;5.05;4.55;;;;;;;3.37;72.39844;95084.54;;;;
2019/11/19 00:01:23;;;;;;;5.05;4.55;;;;;;;3.37;72.39844;95084.54;;;;
2019/11/19 00:02:25;;;;;;;5.05;4.55;;;;;;;3.37;72.39844;95084.54;;;;
2019/11/19 00:03:26;;;;;;;5.05;4.55;;;;;;;3.37;72.39844;95084.54;;;;
2019/11/19 00:04:27;;;;;;;5.05;4.55;;;;;;;3.37;72.39844;95084.54;;;;
2019/11/19 00:05:28;;;;;;;5.05;4.55;;;;;;;3.37;72.39844;95084.54;;;;
2019/11/19 00:06:29;;;;;;;5.05;4.55;;;;;;;3.37;72.39844;95084.54;;;;
2019/11/19 00:07:30;;;;;;;5.1;4.6;;;;;;;3.34;72.56152;95087.52;;;;
2019/11/19 00:08:31;;;;;;;5.1;4.6;;;;;;;3.34;72.56152;95087.52;;;;
2019/11/19 00:09:32;;;;;;;5.1;4.6;;;;;;;3.34;72.56152;95087.52;;;;
2019/11/19 00:10:34;;;;;;;5.1;4.6;;;;;;;3.34;72.56152;95087.52;;;;
2019/11/19 00:11:35;;;;;;;5.1;4.6;;;;;;;3.34;72.56152;95087.52;;;;
2019/11/19 00:12:36;;;;;;;5.1;4.6;;;;;;;3.34;72.56152;95087.52;;;;
2019/11/19 00:13:37;;;;;;;5.1;4.6;;;;;;;3.34;72.56152;95087.52;;;;
2019/11/19 00:14:38;;;;;;;5.1;4.6;;;;;;;3.34;72.56152;95087.52;;;;
2019/11/19 00:15:39;;;;;;;5.1;4.6;;;;;;;3.34;72.56152;95087.52;;;;
2019/11/19 00:16:40;;;;;;;5.1;4.6;;;;;;;3.34;72.56152;95087.52;;;;
2019/11/19 00:17:41;;;;;;;5.05;4.55;;;;;;;3.41;72.87891;95083.54;;;;
2019/11/19 00:18:49;;;;;;;5.05;4.55;;;;;;;3.41;72.87891;95083.54;;;;
2019/11/19 00:19:51;;;;;;;5.05;4.55;;;;;;;3.41;72.87891;95083.54;;;;
2019/11/19 00:20:52;;;;;;;5.05;4.55;;;;;;;3.41;72.87891;95083.54;;;;
2019/11/19 00:21:53;;;;;;;5.05;4.55;;;;;;;3.41;72.87891;95083.54;;;;
2019/11/19 00:22:54;;;;;;;5.05;4.55;;;;;;;3.41;72.87891;95083.54;;;;
2019/11/19 00:23:55;;;;;;;5.05;4.55;;;;;;;3.41;72.87891;95083.54;;;;
2019/11/19 00:24:56;;;;;;;5.05;4.55;;;;;;;3.41;72.87891;95083.54;;;;
2019/11/19 00:27:02;;;;;;;5.05;4.55;;;;;;;3.41;72.87891;95083.54;;;;
2019/11/19 00:28:04;;;;;;;5.05;4.55;;;;;;;3.41;72.87891;95083.54;;;;
2019/11/19 00:29:05;;;;;;;4.75;4.25;;;;;;;3.42;72.98535;95085.19;;;;
2019/11/19 00:30:06;;;;;;;4.75;4.25;;;;;;;3.42;72.98535;95085.19;;;;
2019/11/19 00:31:07;;;;;;;4.75;4.25;;;;;;;3.42;72.98535;95085.19;;;;
2019/11/19 00:32:08;;;;;;;4.75;4.25;;;;;;;3.42;72.98535;95085.19;;;;
2019/11/19 00:33:10;;;;;;;4.75;4.25;;;;;;;3.42;72.98535;95085.19;;;;
2019/11/19 00:34:11;;;;;;;4.75;4.25;;;;;;;3.42;72.98535;95085.19;;;;
2019/11/19 00:35:12;;;;;;;4.75;4.25;;;;;;;3.42;72.98535;95085.19;;;;
2019/11/19 00:36:45;;;;;;;4.75;4.25;;;;;;;3.42;72.98535;95085.19;;;;
2019/11/19 00:37:46;;;;;;;4.75;4.25;;;;;;;3.42;72.98535;95085.19;;;;
2019/11/19 00:38:47;;;;;;;5.3;4.75;;;;;;;3.47;73.27734;95110.38;;;;
2019/11/19 00:39:48;;;;;;;5.3;4.75;;;;;;;3.47;73.27734;95110.38;;;;
2019/11/19 00:40:50;;;;;;;5.3;4.75;;;;;;;3.47;73.27734;95110.38;;;;
2019/11/19 00:41:51;;;;;;;5.3;4.75;;;;;;;3.47;73.27734;95110.38;;;;
2019/11/19 00:42:52;;;;;;;5.3;4.75;;;;;;;3.47;73.27734;95110.38;;;;
2019/11/19 00:43:53;;;;;;;5.3;4.75;;;;;;;3.47;73.27734;95110.38;;;;
2019/11/19 00:44:54;;;;;;;5.3;4.75;;;;;;;3.47;73.27734;95110.38;;;;
2019/11/19 00:45:55;;;;;;;5.3;4.75;;;;;;;3.47;73.27734;95110.38;;;;
2019/11/19 00:46:57;;;;;;;5.3;4.75;;;;;;;3.47;73.27734;95110.38;;;;
2019/11/19 00:47:58;;;;;;;5.3;4.75;;;;;;;3.47;73.27734;95110.38;;;;
2019/11/19 00:48:59;;;;;;;5.3;4.75;;;;;;;3.47;73.27734;95110.38;;;;
2019/11/19 00:50:00;;;;;;;5.299999;4.749999;;;;;;;3.46;73.50879;95118.88;;;;
2019/11/19 00:51:01;;;;;;;5.299999;4.749999;;;;;;;3.46;73.50879;95118.88;;;;
2019/11/19 00:52:03;;;;;;;5.299999;4.749999;;;;;;;3.46;73.50879;95118.88;;;;
2019/11/19 00:53:04;;;;;;;5.299999;4.749999;;;;;;;3.46;73.50879;95118.88;;;;
2019/11/19 00:54:05;;;;;;;5.299999;4.749999;;;;;;;3.46;73.50879;95118.88;;;;
2019/11/19 00:55:06;;;;;;;5.299999;4.749999;;;;;;;3.46;73.50879;95118.88;;;;
2019/11/19 00:56:07;;;;;;;5.299999;4.749999;;;;;;;3.46;73.50879;95118.88;;;;
2019/11/19 00:57:09;;;;;;;5.299999;4.749999;;;;;;;3.46;73.50879;95118.88;;;;
2019/11/19 00:58:10;;;;;;;5.299999;4.749999;;;;;;;3.46;73.50879;95118.88;;;;
2019/11/19 00:59:11;;;;;;;5.299999;4.749999;;;;;;;3.46;73.50879;95118.88;;;;
2019/11/19 01:00:12;;;;;;;5.25;4.749999;;;;;;;3.46;73.78125;95101.12;;;;
2019/11/19 01:01:44;;;;;;;5.25;4.749999;;;;;;;3.46;73.78125;95101.12;;;;
2019/11/19 01:02:45;;;;;;;5.25;4.749999;;;;;;;3.46;73.78125;95101.12;;;;
2019/11/19 01:03:46;;;;;;;5.25;4.749999;;;;;;;3.46;73.78125;95101.12;;;;
2019/11/19 01:04:47;;;;;;;5.25;4.749999;;;;;;;3.46;73.78125;95101.12;;;;
2019/11/19 01:05:48;;;;;;;5.25;4.749999;;;;;;;3.46;73.78125;95101.12;;;;
2019/11/19 01:06:50;;;;;;;5.25;4.749999;;;;;;;3.46;73.78125;95101.12;;;;
2019/11/19 01:07:51;;;;;;;5.25;4.749999;;;;;;;3.46;73.78125;95101.12;;;;
2019/11/19 01:08:52;;;;;;;5.25;4.749999;;;;;;;3.46;73.78125;95101.12;;;;
2019/11/19 01:09:53;;;;;;;5.25;4.749999;;;;;;;3.46;73.78125;95101.12;;;;
2019/11/19 01:10:54;;;;;;;5.199999;4.699999;;;;;;;3.53;74.00488;95111.31;;;;
2019/11/19 01:11:56;;;;;;;5.199999;4.699999;;;;;;;3.53;74.00488;95111.31;;;;
2019/11/19 01:12:57;;;;;;;5.199999;4.699999;;;;;;;3.53;74.00488;95111.31;;;;
2019/11/19 01:13:58;;;;;;;5.199999;4.699999;;;;;;;3.53;74.00488;95111.31;;;;
2019/11/19 01:14:59;;;;;;;5.199999;4.699999;;;;;;;3.53;74.00488;95111.31;;;;
2019/11/19 01:16:01;;;;;;;5.199999;4.699999;;;;;;;3.53;74.00488;95111.31;;;;
2019/11/19 01:17:05;;;;;;;5.199999;4.699999;;;;;;;3.53;74.00488;95111.31;;;;
2019/11/19 01:18:06;;;;;;;5.199999;4.699999;;;;;;;3.53;74.00488;95111.31;;;;
2019/11/19 01:19:07;;;;;;;5.199999;4.699999;;;;;;;3.53;74.00488;95111.31;;;;
2019/11/19 01:20:08;;;;;;;5.199999;4.699999;;;;;;;3.53;74.00488;95111.31;;;;
2019/11/19 01:21:09;;;;;;;5.199999;4.699999;;;;;;;3.53;74.00488;95111.31;;;;
2019/11/19 01:22:11;;;;;;;5.25;4.45;;;;;;;3.53;74.23633;95113.07;;;;
2019/11/19 01:23:12;;;;;;;5.25;4.45;;;;;;;3.53;74.23633;95113.07;;;;
2019/11/19 01:24:14;;;;;;;5.25;4.45;;;;;;;3.53;74.23633;95113.07;;;;
2019/11/19 01:25:15;;;;;;;5.25;4.45;;;;;;;3.53;74.23633;95113.07;;;;
2019/11/19 01:26:16;;;;;;;5.25;4.45;;;;;;;3.53;74.23633;95113.07;;;;
2019/11/19 01:27:17;;;;;;;5.25;4.45;;;;;;;3.53;74.23633;95113.07;;;;
2019/11/19 01:28:19;;;;;;;5.25;4.45;;;;;;;3.53;74.23633;95113.07;;;;
2019/11/19 01:29:20;;;;;;;5.25;4.45;;;;;;;3.53;74.23633;95113.07;;;;
2019/11/19 01:30:21;;;;;;;5.25;4.45;;;;;;;3.53;74.23633;95113.07;;;;
2019/11/19 01:31:22;;;;;;;5.25;4.45;;;;;;;3.53;74.23633;95113.07;;;;
2019/11/19 01:32:23;;;;;;;6.15;4.349999;;;;;;;3.62;74.50391;95103.05;;;;
2019/11/19 01:33:24;;;;;;;6.15;4.349999;;;;;;;3.62;74.50391;95103.05;;;;
2019/11/19 01:34:26;;;;;;;6.15;4.349999;;;;;;;3.62;74.50391;95103.05;;;;
2019/11/19 01:35:27;;;;;;;6.15;4.349999;;;;;;;3.62;74.50391;95103.05;;;;
2019/11/19 01:36:28;;;;;;;6.15;4.349999;;;;;;;3.62;74.50391;95103.05;;;;
2019/11/19 01:37:29;;;;;;;6.15;4.349999;;;;;;;3.62;74.50391;95103.05;;;;
2019/11/19 01:38:31;;;;;;;6.15;4.349999;;;;;;;3.62;74.50391;95103.05;;;;
2019/11/19 01:39:32;;;;;;;6.15;4.349999;;;;;;;3.62;74.50391;95103.05;;;;
2019/11/19 01:40:33;;;;;;;6.15;4.349999;;;;;;;3.62;74.50391;95103.05;;;;
2019/11/19 01:41:45;;;;;;;6.15;4.349999;;;;;;;3.62;74.50391;95103.05;;;;
2019/11/19 01:42:46;;;;;;;5.150001;4.55;;;;;;;3.62;74.7666;95099.05;;;;
2019/11/19 01:43:47;;;;;;;5.150001;4.55;;;;;;;3.62;74.7666;95099.05;;;;
2019/11/19 01:44:48;;;;;;;5.150001;4.55;;;;;;;3.62;74.7666;95099.05;;;;
2019/11/19 01:45:49;;;;;;;5.150001;4.55;;;;;;;3.62;74.7666;95099.05;;;;
2019/11/19 01:46:53;;;;;;;5.150001;4.55;;;;;;;3.62;74.7666;95099.05;;;;
2019/11/19 01:47:55;;;;;;;5.150001;4.55;;;;;;;3.62;74.7666;95099.05;;;;
2019/11/19 01:48:56;;;;;;;5.150001;4.55;;;;;;;3.62;74.7666;95099.05;;;;
2019/11/19 01:49:57;;;;;;;5.150001;4.55;;;;;;;3.62;74.7666;95099.05;;;;
2019/11/19 01:50:58;;;;;;;5.150001;4.55;;;;;;;3.62;74.7666;95099.05;;;;
2019/11/19 01:52:18;;;;;;;5.150001;4.55;;;;;;;3.62;74.7666;95099.05;;;;
2019/11/19 01:53:19;;;;;;;5.550001;5;;;;;;;3.52;75.07617;95095.84;;;;
2019/11/19 01:54:20;;;;;;;5.550001;5;;;;;;;3.52;75.07617;95095.84;;;;
2019/11/19 01:55:21;;;;;;;5.550001;5;;;;;;;3.52;75.07617;95095.84;;;;
2019/11/19 01:56:22;;;;;;;5.550001;5;;;;;;;3.52;75.07617;95095.84;;;;
2019/11/19 01:57:25;;;;;;;5.550001;5;;;;;;;3.52;75.07617;95095.84;;;;
2019/11/19 01:58:26;;;;;;;5.550001;5;;;;;;;3.52;75.07617;95095.84;;;;
2019/11/19 01:59:27;;;;;;;5.550001;5;;;;;;;3.52;75.07617;95095.84;;;;
2019/11/19 02:00:28;;;;;;;5.550001;5;;;;;;;3.52;75.07617;95095.84;;;;
2019/11/19 02:01:29;;;;;;;5.550001;5;;;;;;;3.52;75.07617;95095.84;;;;
2019/11/19 02:02:31;;;;;;;5.550001;5;;;;;;;3.52;75.07617;95095.84;;;;
2019/11/19 02:03:32;;;;;;;5.550001;5;;;;;;;3.52;75.07617;95095.84;;;;
2019/11/19 02:04:34;;;;;;;5.25;4.75;;;;;;;3.26;75.37891;95087.66;;;;
2019/11/19 02:05:35;;;;;;;5.25;4.75;;;;;;;3.26;75.37891;95087.66;;;;
2019/11/19 02:06:36;;;;;;;5.25;4.75;;;;;;;3.26;75.37891;95087.66;;;;
2019/11/19 02:07:37;;;;;;;5.25;4.75;;;;;;;3.26;75.37891;95087.66;;;;
2019/11/19 02:08:39;;;;;;;5.25;4.75;;;;;;;3.26;75.37891;95087.66;;;;
2019/11/19 02:09:42;;;;;;;5.25;4.75;;;;;;;3.26;75.37891;95087.66;;;;
2019/11/19 02:10:43;;;;;;;5.25;4.75;;;;;;;3.26;75.37891;95087.66;;;;
2019/11/19 02:11:44;;;;;;;5.25;4.75;;;;;;;3.26;75.37891;95087.66;;;;
2019/11/19 02:12:46;;;;;;;5.25;4.75;;;;;;;3.26;75.37891;95087.66;;;;
2019/11/19 02:13:47;;;;;;;5.25;4.75;;;;;;;3.26;75.37891;95087.66;;;;
2019/11/19 02:14:51;;;;;;;5;4.5;;;;;;;3.03;75.83203;95082.69;;;;
2019/11/19 02:15:52;;;;;;;5;4.5;;;;;;;3.03;75.83203;95082.69;;;;
2019/11/19 02:16:53;;;;;;;5;4.5;;;;;;;3.03;75.83203;95082.69;;;;
2019/11/19 02:17:54;;;;;;;5;4.5;;;;;;;3.03;75.83203;95082.69;;;;
2019/11/19 02:18:55;;;;;;;5;4.5;;;;;;;3.03;75.83203;95082.69;;;;
2019/11/19 02:19:57;;;;;;;5;4.5;;;;;;;3.03;75.83203;95082.69;;;;
2019/11/19 02:20:58;;;;;;;5;4.5;;;;;;;3.03;75.83203;95082.69;;;;
2019/11/19 02:22:00;;;;;;;5;4.5;;;;;;;3.03;75.83203;95082.69;;;;
2019/11/19 02:23:01;;;;;;;5;4.5;;;;;;;3.03;75.83203;95082.69;;;;
2019/11/19 02:24:02;;;;;;;5;4.5;;;;;;;3.03;75.83203;95082.69;;;;
2019/11/19 02:25:03;;;;;;;6.199999;5.1;;;;;;;2.65;76.32129;95090.7;;;;
2019/11/19 02:26:05;;;;;;;6.199999;5.1;;;;;;;2.65;76.32129;95090.7;;;;
2019/11/19 02:27:06;;;;;;;6.199999;5.1;;;;;;;2.65;76.32129;95090.7;;;;
2019/11/19 02:28:07;;;;;;;6.199999;5.1;;;;;;;2.65;76.32129;95090.7;;;;
2019/11/19 02:29:09;;;;;;;6.199999;5.1;;;;;;;2.65;76.32129;95090.7;;;;
2019/11/19 02:30:10;;;;;;;6.199999;5.1;;;;;;;2.65;76.32129;95090.7;;;;
2019/11/19 02:31:14;;;;;;;6.199999;5.1;;;;;;;2.65;76.32129;95090.7;;;;
2019/11/19 02:32:15;;;;;;;6.199999;5.1;;;;;;;2.65;76.32129;95090.7;;;;
2019/11/19 02:33:16;;;;;;;6.199999;5.1;;;;;;;2.65;76.32129;95090.7;;;;
2019/11/19 02:34:18;;;;;;;6.199999;5.1;;;;;;;2.65;76.32129;95090.7;;;;
2019/11/19 02:35:19;;;;;;;6.199999;5.1;;;;;;;2.65;76.32129;95090.7;;;;
2019/11/19 02:36:20;;;;;;;6.000001;5.4;;;;;;;2.3;76.74023;95068.06;;;;
2019/11/19 02:37:22;;;;;;;6.000001;5.4;;;;;;;2.3;76.74023;95068.06;;;;
2019/11/19 02:38:23;;;;;;;6.000001;5.4;;;;;;;2.3;76.74023;95068.06;;;;
2019/11/19 02:39:24;;;;;;;6.000001;5.4;;;;;;;2.3;76.74023;95068.06;;;;
2019/11/19 02:40:25;;;;;;;6.000001;5.4;;;;;;;2.3;76.74023;95068.06;;;;
2019/11/19 02:41:26;;;;;;;6.000001;5.4;;;;;;;2.3;76.74023;95068.06;;;;
2019/11/19 02:47:36;;;;;;;6.100001;5.5;;;;;;;1.96;77.04688;95078.56;;;;
2019/11/19 02:48:37;;;;;;;6.100001;5.5;;;;;;;1.96;77.04688;95078.56;;;;
2019/11/19 02:49:39;;;;;;;6.100001;5.5;;;;;;;1.96;77.04688;95078.56;;;;
2019/11/19 02:50:40;;;;;;;6.100001;5.5;;;;;;;1.96;77.04688;95078.56;;;;
2019/11/19 02:51:41;;;;;;;6.100001;5.5;;;;;;;1.96;77.04688;95078.56;;;;
2019/11/19 02:52:43;;;;;;;6.100001;5.5;;;;;;;1.96;77.04688;95078.56;;;;
2019/11/19 02:53:44;;;;;;;6.100001;5.5;;;;;;;1.96;77.04688;95078.56;;;;
2019/11/19 02:54:45;;;;;;;6.100001;5.5;;;;;;;1.96;77.04688;95078.56;;;;
2019/11/19 02:55:46;;;;;;;6.100001;5.5;;;;;;;1.96;77.04688;95078.56;;;;
2019/11/19 02:56:47;;;;;;;8.050001;5.799999;;;;;;;1.77;77.36035;95056.95;;;;
2019/11/19 02:57:49;;;;;;;8.050001;5.799999;;;;;;;1.77;77.36035;95056.95;;;;
2019/11/19 02:58:50;;;;;;;8.050001;5.799999;;;;;;;1.77;77.36035;95056.95;;;;
2019/11/19 02:59:51;;;;;;;8.050001;5.799999;;;;;;;1.77;77.36035;95056.95;;;;
2019/11/19 03:00:52;;;;;;;8.050001;5.799999;;;;;;;1.77;77.36035;95056.95;;;;
2019/11/19 03:01:53;;;;;;;8.050001;5.799999;;;;;;;1.77;77.36035;95056.95;;;;
2019/11/19 03:02:54;;;;;;;8.050001;5.799999;;;;;;;1.77;77.36035;95056.95;;;;
2019/11/19 03:03:56;;;;;;;8.050001;5.799999;;;;;;;1.77;77.36035;95056.95;;;;
2019/11/19 03:04:57;;;;;;;8.050001;5.799999;;;;;;;1.77;77.36035;95056.95;;;;
2019/11/19 03:05:58;;;;;;;8.050001;5.799999;;;;;;;1.77;77.36035;95056.95;;;;
2019/11/19 03:06:59;;;;;;;8.050001;5.799999;;;;;;;1.77;77.36035;95056.95;;;;
2019/11/19 03:08:01;;;;;;;6.15;5.55;;;;;;;1.58;77.4502;95054.89;;;;
2019/11/19 03:09:02;;;;;;;6.15;5.55;;;;;;;1.58;77.4502;95054.89;;;;
2019/11/19 03:10:03;;;;;;;6.15;5.55;;;;;;;1.58;77.4502;95054.89;;;;
2019/11/19 03:11:05;;;;;;;6.15;5.55;;;;;;;1.58;77.4502;95054.89;;;;
2019/11/19 03:12:06;;;;;;;6.15;5.55;;;;;;;1.58;77.4502;95054.89;;;;
2019/11/19 03:13:07;;;;;;;6.15;5.55;;;;;;;1.58;77.4502;95054.89;;;;
2019/11/19 03:14:08;;;;;;;6.15;5.55;;;;;;;1.58;77.4502;95054.89;;;;
2019/11/19 03:15:10;;;;;;;6.15;5.55;;;;;;;1.58;77.4502;95054.89;;;;
2019/11/19 03:16:11;;;;;;;6.15;5.55;;;;;;;1.58;77.4502;95054.89;;;;
2019/11/19 03:17:12;;;;;;;6.15;5.55;;;;;;;1.58;77.4502;95054.89;;;;
2019/11/19 03:18:13;;;;;;;6.649999;5.95;;;;;;;1.44;77.84277;95048.16;;;;
2019/11/19 03:19:15;;;;;;;6.649999;5.95;;;;;;;1.44;77.84277;95048.16;;;;
2019/11/19 03:20:16;;;;;;;6.649999;5.95;;;;;;;1.44;77.84277;95048.16;;;;
2019/11/19 03:21:17;;;;;;;6.649999;5.95;;;;;;;1.44;77.84277;95048.16;;;;
2019/11/19 03:22:22;;;;;;;6.649999;5.95;;;;;;;1.44;77.84277;95048.16;;;;
2019/11/19 03:23:23;;;;;;;6.649999;5.95;;;;;;;1.44;77.84277;95048.16;;;;
2019/11/19 03:24:24;;;;;;;6.649999;5.95;;;;;;;1.44;77.84277;95048.16;;;;
2019/11/19 03:25:25;;;;;;;6.649999;5.95;;;;;;;1.44;77.84277;95048.16;;;;
2019/11/19 03:26:27;;;;;;;6.649999;5.95;;;;;;;1.44;77.84277;95048.16;;;;
2019/11/19 03:27:28;;;;;;;6.649999;5.95;;;;;;;1.44;77.84277;95048.16;;;;
2019/11/19 03:28:29;;;;;;;6.649999;5.95;;;;;;;1.44;77.84277;95048.16;;;;
2019/11/19 03:29:30;;;;;;;7.15;6.25;;;;;;;1.33;78.14844;95041.06;;;;
2019/11/19 03:30:31;;;;;;;7.15;6.25;;;;;;;1.33;78.14844;95041.06;;;;
2019/11/19 03:31:33;;;;;;;7.15;6.25;;;;;;;1.33;78.14844;95041.06;;;;
2019/11/19 03:32:34;;;;;;;7.15;6.25;;;;;;;1.33;78.14844;95041.06;;;;
2019/11/19 03:33:35;;;;;;;7.15;6.25;;;;;;;1.33;78.14844;95041.06;;;;
2019/11/19 03:34:36;;;;;;;7.15;6.25;;;;;;;1.33;78.14844;95041.06;;;;
2019/11/19 03:35:37;;;;;;;7.15;6.25;;;;;;;1.33;78.14844;95041.06;;;;
2019/11/19 03:36:38;;;;;;;7.15;6.25;;;;;;;1.33;78.14844;95041.06;;;;
2019/11/19 03:37:39;;;;;;;7.15;6.25;;;;;;;1.33;78.14844;95041.06;;;;
2019/11/19 03:38:40;;;;;;;7.15;6.25;;;;;;;1.33;78.14844;95041.06;;;;
2019/11/19 03:39:42;;;;;;;6.8;6.1;;;;;;;1.31;78.40625;95053.34;;;;
2019/11/19 03:40:43;;;;;;;6.8;6.1;;;;;;;1.31;78.40625;95053.34;;;;
2019/11/19 03:41:46;;;;;;;6.8;6.1;;;;;;;1.31;78.40625;95053.34;;;;
2019/11/19 03:42:51;;;;;;;6.8;6.1;;;;;;;1.31;78.40625;95053.34;;;;
2019/11/19 03:43:52;;;;;;;6.8;6.1;;;;;;;1.31;78.40625;95053.34;;;;
2019/11/19 03:44:53;;;;;;;6.8;6.1;;;;;;;1.31;78.40625;95053.34;;;;
2019/11/19 03:45:54;;;;;;;6.8;6.1;;;;;;;1.31;78.40625;95053.34;;;;
2019/11/19 03:46:55;;;;;;;6.8;6.1;;;;;;;1.31;78.40625;95053.34;;;;
2019/11/19 03:47:56;;;;;;;6.8;6.1;;;;;;;1.31;78.40625;95053.34;;;;
2019/11/19 03:48:58;;;;;;;6.8;6.1;;;;;;;1.31;78.40625;95053.34;;;;
2019/11/19 03:49:59;;;;;;;6.599999;5.950001;;;;;;;1.25;78.56152;95038.94;;;;
2019/11/19 03:51:00;;;;;;;6.599999;5.950001;;;;;;;1.25;78.56152;95038.94;;;;
2019/11/19 03:52:02;;;;;;;6.599999;5.950001;;;;;;;1.25;78.56152;95038.94;;;;
2019/11/19 03:53:03;;;;;;;6.599999;5.950001;;;;;;;1.25;78.56152;95038.94;;;;
2019/11/19 03:54:04;;;;;;;6.599999;5.950001;;;;;;;1.25;78.56152;95038.94;;;;
2019/11/19 03:55:05;;;;;;;6.599999;5.950001;;;;;;;1.25;78.56152;95038.94;;;;
2019/11/19 03:56:06;;;;;;;6.599999;5.950001;;;;;;;1.25;78.56152;95038.94;;;;
2019/11/19 03:57:08;;;;;;;6.599999;5.950001;;;;;;;1.25;78.56152;95038.94;;;;
2019/11/19 03:58:10;;;;;;;6.599999;5.950001;;;;;;;1.25;78.56152;95038.94;;;;
2019/11/19 03:59:11;;;;;;;6.599999;5.950001;;;;;;;1.25;78.56152;95038.94;;;;
2019/11/19 04:00:12;;;;;;;6.599999;5.950001;;;;;;;1.25;78.56152;95038.94;;;;
2019/11/19 04:01:14;;;;;;;6.249999;5.649999;;;;;;;1.24;78.8125;95030.25;;;;
2019/11/19 04:02:15;;;;;;;6.249999;5.649999;;;;;;;1.24;78.8125;95030.25;;;;
2019/11/19 04:03:16;;;;;;;6.249999;5.649999;;;;;;;1.24;78.8125;95030.25;;;;
2019/11/19 04:04:17;;;;;;;6.249999;5.649999;;;;;;;1.24;78.8125;95030.25;;;;
2019/11/19 04:05:18;;;;;;;6.249999;5.649999;;;;;;;1.24;78.8125;95030.25;;;;
2019/11/19 04:06:20;;;;;;;6.249999;5.649999;;;;;;;1.24;78.8125;95030.25;;;;
2019/11/19 04:07:21;;;;;;;6.249999;5.649999;;;;;;;1.24;78.8125;95030.25;;;;
2019/11/19 04:08:22;;;;;;;6.249999;5.649999;;;;;;;1.24;78.8125;95030.25;;;;
2019/11/19 04:09:24;;;;;;;6.249999;5.649999;;;;;;;1.24;78.8125;95030.25;;;;
2019/11/19 04:10:26;;;;;;;6.249999;5.649999;;;;;;;1.24;78.8125;95030.25;;;;
2019/11/19 04:11:32;;;;;;;7.55;6.05;;;;;;;1.04;78.9209;95043.78;;;;
2019/11/19 04:12:40;;;;;;;7.55;6.05;;;;;;;1.04;78.9209;95043.78;;;;
2019/11/19 04:13:46;;;;;;;7.55;6.05;;;;;;;1.04;78.9209;95043.78;;;;
2019/11/19 04:14:55;;;;;;;7.55;6.05;;;;;;;1.04;78.9209;95043.78;;;;
2019/11/19 04:15:58;;;;;;;7.55;6.05;;;;;;;1.04;78.9209;95043.78;;;;
2019/11/19 04:17:03;;;;;;;7.55;6.05;;;;;;;1.04;78.9209;95043.78;;;;
2019/11/19 04:18:06;;;;;;;7.55;6.05;;;;;;;1.04;78.9209;95043.78;;;;
2019/11/19 04:19:09;;;;;;;7.55;6.05;;;;;;;1.04;78.9209;95043.78;;;;
2019/11/19 04:20:13;;;;;;;7.55;6.05;;;;;;;1.04;78.9209;95043.78;;;;
2019/11/19 04:21:16;;;;;;;7.55;6.05;;;;;;;1.04;78.9209;95043.78;;;;
2019/11/19 04:22:24;;;;;;;6.5;5.8;;;;;;;0.85;79.4082;95044.72;;;;
2019/11/19 04:23:27;;;;;;;6.5;5.8;;;;;;;0.85;79.4082;95044.72;;;;
2019/11/19 04:24:29;;;;;;;6.5;5.8;;;;;;;0.85;79.4082;95044.72;;;;
2019/11/19 04:25:30;;;;;;;6.5;5.8;;;;;;;0.85;79.4082;95044.72;;;;
2019/11/19 04:26:31;;;;;;;6.5;5.8;;;;;;;0.85;79.4082;95044.72;;;;
2019/11/19 04:27:35;;;;;;;6.5;5.8;;;;;;;0.85;79.4082;95044.72;;;;
2019/11/19 04:28:36;;;;;;;6.5;5.8;;;;;;;0.85;79.4082;95044.72;;;;
2019/11/19 04:29:39;;;;;;;6.5;5.8;;;;;;;0.85;79.4082;95044.72;;;;
2019/11/19 04:30:40;;;;;;;6.5;5.8;;;;;;;0.85;79.4082;95044.72;;;;
2019/11/19 04:31:42;;;;;;;6.5;5.8;;;;;;;0.85;79.4082;95044.72;;;;
2019/11/19 04:32:47;;;;;;;6.35;5.750001;;;;;;;0.6;79.65527;95041.08;;;;
2019/11/19 04:33:48;;;;;;;6.35;5.750001;;;;;;;0.6;79.65527;95041.08;;;;
2019/11/19 04:34:49;;;;;;;6.35;5.750001;;;;;;;0.6;79.65527;95041.08;;;;
2019/11/19 04:35:51;;;;;;;6.35;5.750001;;;;;;;0.6;79.65527;95041.08;;;;
2019/11/19 04:36:52;;;;;;;6.35;5.750001;;;;;;;0.6;79.65527;95041.08;;;;
2019/11/19 04:37:53;;;;;;;6.35;5.750001;;;;;;;0.6;79.65527;95041.08;;;;
2019/11/19 04:38:54;;;;;;;6.35;5.750001;;;;;;;0.6;79.65527;95041.08;;;;
2019/11/19 04:39:55;;;;;;;6.35;5.750001;;;;;;;0.6;79.65527;95041.08;;;;
2019/11/19 04:40:56;;;;;;;6.35;5.750001;;;;;;;0.6;79.65527;95041.08;;;;
2019/11/19 04:41:58;;;;;;;6.35;5.750001;;;;;;;0.6;79.65527;95041.08;;;;
2019/11/19 04:42:59;;;;;;;8.399999;6.149999;;;;;;;0.39;80.11523;95046.28;;;;
2019/11/19 04:44:00;;;;;;;8.399999;6.149999;;;;;;;0.39;80.11523;95046.28;;;;
2019/11/19 04:45:01;;;;;;;8.399999;6.149999;;;;;;;0.39;80.11523;95046.28;;;;
2019/11/19 04:46:03;;;;;;;8.399999;6.149999;;;;;;;0.39;80.11523;95046.28;;;;
2019/11/19 04:47:04;;;;;;;8.399999;6.149999;;;;;;;0.39;80.11523;95046.28;;;;
2019/11/19 04:48:05;;;;;;;8.399999;6.149999;;;;;;;0.39;80.11523;95046.28;;;;
2019/11/19 04:49:07;;;;;;;8.399999;6.149999;;;;;;;0.39;80.11523;95046.28;;;;
2019/11/19 04:50:08;;;;;;;8.399999;6.149999;;;;;;;0.39;80.11523;95046.28;;;;
2019/11/19 04:51:09;;;;;;;8.399999;6.149999;;;;;;;0.39;80.11523;95046.28;;;;
2019/11/19 04:52:10;;;;;;;8.399999;6.149999;;;;;;;0.39;80.11523;95046.28;;;;
2019/11/19 04:53:11;;;;;;;8.399999;6.149999;;;;;;;0.39;80.11523;95046.28;;;;
2019/11/19 04:54:12;;;;;;;7.750001;6.55;;;;;;;0.34;80.2207;95040.69;;;;
2019/11/19 04:55:13;;;;;;;7.750001;6.55;;;;;;;0.34;80.2207;95040.69;;;;
2019/11/19 04:56:15;;;;;;;7.750001;6.55;;;;;;;0.34;80.2207;95040.69;;;;
2019/11/19 04:57:16;;;;;;;7.750001;6.55;;;;;;;0.34;80.2207;95040.69;;;;
2019/11/19 04:58:17;;;;;;;7.750001;6.55;;;;;;;0.34;80.2207;95040.69;;;;
2019/11/19 04:59:18;;;;;;;7.750001;6.55;;;;;;;0.34;80.2207;95040.69;;;;
2019/11/19 05:00:19;;;;;;;7.750001;6.55;;;;;;;0.34;80.2207;95040.69;;;;
2019/11/19 05:01:20;;;;;;;7.750001;6.55;;;;;;;0.34;80.2207;95040.69;;;;
2019/11/19 05:02:22;;;;;;;7.750001;6.55;;;;;;;0.34;80.2207;95040.69;;;;
2019/11/19 05:03:23;;;;;;;7.750001;6.55;;;;;;;0.34;80.2207;95040.69;;;;
2019/11/19 05:04:24;;;;;;;7.649999;5.8;;;;;;;0.23;80.55566;95042.86;;;;
2019/11/19 05:05:25;;;;;;;7.649999;5.8;;;;;;;0.23;80.55566;95042.86;;;;
2019/11/19 05:06:26;;;;;;;7.649999;5.8;;;;;;;0.23;80.55566;95042.86;;;;
2019/11/19 05:07:27;;;;;;;7.649999;5.8;;;;;;;0.23;80.55566;95042.86;;;;
2019/11/19 05:08:29;;;;;;;7.649999;5.8;;;;;;;0.23;80.55566;95042.86;;;;
2019/11/19 05:09:30;;;;;;;7.649999;5.8;;;;;;;0.23;80.55566;95042.86;;;;
2019/11/19 05:10:31;;;;;;;7.649999;5.8;;;;;;;0.23;80.55566;95042.86;;;;
2019/11/19 05:11:32;;;;;;;7.649999;5.8;;;;;;;0.23;80.55566;95042.86;;;;
2019/11/19 05:12:34;;;;;;;7.649999;5.8;;;;;;;0.23;80.55566;95042.86;;;;
2019/11/19 05:13:35;;;;;;;7.649999;5.8;;;;;;;0.23;80.55566;95042.86;;;;
2019/11/19 05:14:36;;;;;;;7.649999;5.8;;;;;;;0.23;80.55566;95042.86;;;;
2019/11/19 05:15:37;;;;;;;6.95;5.750001;;;;;;;0.12;81.01367;95038.87;;;;
2019/11/19 05:16:38;;;;;;;6.95;5.750001;;;;;;;0.12;81.01367;95038.87;;;;
2019/11/19 05:17:39;;;;;;;6.95;5.750001;;;;;;;0.12;81.01367;95038.87;;;;
2019/11/19 05:18:40;;;;;;;6.95;5.750001;;;;;;;0.12;81.01367;95038.87;;;;
2019/11/19 05:19:42;;;;;;;6.95;5.750001;;;;;;;0.12;81.01367;95038.87;;;;
2019/11/19 05:20:43;;;;;;;6.95;5.750001;;;;;;;0.12;81.01367;95038.87;;;;
2019/11/19 05:21:44;;;;;;;6.95;5.750001;;;;;;;0.12;81.01367;95038.87;;;;
2019/11/19 05:22:45;;;;;;;6.95;5.750001;;;;;;;0.12;81.01367;95038.87;;;;
2019/11/19 05:23:46;;;;;;;6.95;5.750001;;;;;;;0.12;81.01367;95038.87;;;;
2019/11/19 05:24:47;;;;;;;6.95;5.750001;;;;;;;0.12;81.01367;95038.87;;;;
2019/11/19 05:25:48;;;;;;;7.15;5.700001;;;;;;;0.06;81.01172;95062.62;;;;
2019/11/19 05:26:50;;;;;;;7.15;5.700001;;;;;;;0.06;81.01172;95062.62;;;;
2019/11/19 05:27:51;;;;;;;7.15;5.700001;;;;;;;0.06;81.01172;95062.62;;;;
2019/11/19 05:28:52;;;;;;;7.15;5.700001;;;;;;;0.06;81.01172;95062.62;;;;
2019/11/19 05:29:53;;;;;;;7.15;5.700001;;;;;;;0.06;81.01172;95062.62;;;;
2019/11/19 05:30:54;;;;;;;7.15;5.700001;;;;;;;0.06;81.01172;95062.62;;;;
2019/11/19 05:31:55;;;;;;;7.15;5.700001;;;;;;;0.06;81.01172;95062.62;;;;
2019/11/19 05:32:56;;;;;;;7.15;5.700001;;;;;;;0.06;81.01172;95062.62;;;;
2019/11/19 05:33:57;;;;;;;7.15;5.700001;;;;;;;0.06;81.01172;95062.62;;;;
2019/11/19 05:34:59;;;;;;;7.15;5.700001;;;;;;;0.06;81.01172;95062.62;;;;
2019/11/19 05:36:00;;;;;;;7.450001;5.9;;;;;;;-0.11;80.99023;95062.36;;;;
2019/11/19 05:37:01;;;;;;;7.450001;5.9;;;;;;;-0.11;80.99023;95062.36;;;;
2019/11/19 05:38:02;;;;;;;7.450001;5.9;;;;;;;-0.11;80.99023;95062.36;;;;
2019/11/19 05:39:03;;;;;;;7.450001;5.9;;;;;;;-0.11;80.99023;95062.36;;;;
2019/11/19 05:40:04;;;;;;;7.450001;5.9;;;;;;;-0.11;80.99023;95062.36;;;;
2019/11/19 05:41:06;;;;;;;7.450001;5.9;;;;;;;-0.11;80.99023;95062.36;;;;
2019/11/19 05:42:07;;;;;;;7.450001;5.9;;;;;;;-0.11;80.99023;95062.36;;;;
2019/11/19 05:43:08;;;;;;;7.450001;5.9;;;;;;;-0.11;80.99023;95062.36;;;;
2019/11/19 05:44:09;;;;;;;7.450001;5.9;;;;;;;-0.11;80.99023;95062.36;;;;
2019/11/19 05:45:10;;;;;;;7.450001;5.9;;;;;;;-0.11;80.99023;95062.36;;;;
2019/11/19 05:46:11;;;;;;;7.450001;5.9;;;;;;;-0.11;80.99023;95062.36;;;;
2019/11/19 05:47:12;;;;;;;8.199999;6;;;;;;;-0.22;81.20996;95067.16;;;;
2019/11/19 05:48:13;;;;;;;8.199999;6;;;;;;;-0.22;81.20996;95067.16;;;;